sensor_id;sensor_type;location;lat;lon;timestamp;P1;durP1;ratioP1;P2;durP2;ratioP2
11763;SDS011;5939;56.522;14.950;2022-12-18T00:00:42;13.50;;;9.30;;
11763;SDS011;5939;56.522;14.950;2022-12-18T00:03:09;13.60;;;9.70;;
11763;SDS011;5939;56.522;14.950;2022-12-18T00:05:35;13.83;;;9.30;;
11763;SDS011;5939;56.522;14.950;2022-12-18T00:08:01;15.90;;;9.13;;
11763;SDS011;5939;56.522;14.950;2022-12-18T00:10:28;15.20;;;9.23;;
11763;SDS011;5939;56.522;14.950;2022-12-18T00:12:53;13.70;;;8.63;;
11763;SDS011;5939;56.522;14.950;2022-12-18T00:15:19;13.17;;;9.60;;
11763;SDS011;5939;56.522;14.950;2022-12-18T00:17:45;14.43;;;8.67;;
11763;SDS011;5939;56.522;14.950;2022-12-18T00:20:11;15.80;;;9.37;;
11763;SDS011;5939;56.522;14.950;2022-12-18T00:22:37;10.80;;;8.50;;
11763;SDS011;5939;56.522;14.950;2022-12-18T00:25:02;14.07;;;8.63;;
11763;SDS011;5939;56.522;14.950;2022-12-18T00:27:28;16.00;;;10.03;;
11763;SDS011;5939;56.522;14.950;2022-12-18T00:29:54;14.47;;;8.70;;
11763;SDS011;5939;56.522;14.950;2022-12-18T00:32:20;14.10;;;8.77;;
11763;SDS011;5939;56.522;14.950;2022-12-18T00:34:45;14.00;;;8.57;;
11763;SDS011;5939;56.522;14.950;2022-12-18T00:37:11;17.27;;;10.00;;
11763;SDS011;5939;56.522;14.950;2022-12-18T00:39:36;14.43;;;8.80;;
11763;SDS011;5939;56.522;14.950;2022-12-18T00:42:02;14.97;;;8.90;;
11763;SDS011;5939;56.522;14.950;2022-12-18T00:44:46;14.77;;;8.17;;
11763;SDS011;5939;56.522;14.950;2022-12-18T00:47:12;13.07;;;8.37;;
11763;SDS011;5939;56.522;14.950;2022-12-18T00:49:37;13.60;;;8.23;;
11763;SDS011;5939;56.522;14.950;2022-12-18T00:52:03;15.20;;;9.13;;
11763;SDS011;5939;56.522;14.950;2022-12-18T00:54:29;12.30;;;9.03;;
11763;SDS011;5939;56.522;14.950;2022-12-18T00:56:55;13.67;;;8.57;;
11763;SDS011;5939;56.522;14.950;2022-12-18T00:59:20;13.53;;;8.50;;
11763;SDS011;5939;56.522;14.950;2022-12-18T01:01:46;12.40;;;8.67;;
11763;SDS011;5939;56.522;14.950;2022-12-18T01:04:12;12.70;;;8.80;;
11763;SDS011;5939;56.522;14.950;2022-12-18T01:06:38;14.80;;;8.43;;
11763;SDS011;5939;56.522;14.950;2022-12-18T01:09:04;12.83;;;9.20;;
11763;SDS011;5939;56.522;14.950;2022-12-18T01:11:30;14.47;;;8.83;;
11763;SDS011;5939;56.522;14.950;2022-12-18T01:13:59;13.10;;;8.90;;
11763;SDS011;5939;56.522;14.950;2022-12-18T01:16:25;12.67;;;7.77;;
11763;SDS011;5939;56.522;14.950;2022-12-18T01:18:51;13.03;;;8.93;;
11763;SDS011;5939;56.522;14.950;2022-12-18T01:21:18;12.97;;;8.80;;
11763;SDS011;5939;56.522;14.950;2022-12-18T01:23:44;14.47;;;8.73;;
11763;SDS011;5939;56.522;14.950;2022-12-18T01:26:11;13.10;;;9.20;;
11763;SDS011;5939;56.522;14.950;2022-12-18T01:28:41;11.33;;;8.17;;
11763;SDS011;5939;56.522;14.950;2022-12-18T01:31:19;13.70;;;8.90;;
11763;SDS011;5939;56.522;14.950;2022-12-18T01:33:49;14.97;;;9.17;;
11763;SDS011;5939;56.522;14.950;2022-12-18T01:36:32;10.43;;;7.30;;
11763;SDS011;5939;56.522;14.950;2022-12-18T01:39:06;11.67;;;7.73;;
11763;SDS011;5939;56.522;14.950;2022-12-18T01:41:36;13.47;;;8.43;;
11763;SDS011;5939;56.522;14.950;2022-12-18T01:47:15;11.47;;;8.37;;
11763;SDS011;5939;56.522;14.950;2022-12-18T01:49:49;11.20;;;8.03;;
11763;SDS011;5939;56.522;14.950;2022-12-18T01:52:15;10.17;;;7.53;;
11763;SDS011;5939;56.522;14.950;2022-12-18T01:54:43;11.53;;;8.33;;
11763;SDS011;5939;56.522;14.950;2022-12-18T01:57:10;13.63;;;9.17;;
11763;SDS011;5939;56.522;14.950;2022-12-18T01:59:36;12.97;;;8.10;;
11763;SDS011;5939;56.522;14.950;2022-12-18T02:02:03;13.07;;;8.57;;
11763;SDS011;5939;56.522;14.950;2022-12-18T02:04:29;11.17;;;8.27;;
11763;SDS011;5939;56.522;14.950;2022-12-18T02:07:38;12.33;;;7.80;;
11763;SDS011;5939;56.522;14.950;2022-12-18T02:10:00;10.97;;;7.13;;
11763;SDS011;5939;56.522;14.950;2022-12-18T02:15:39;12.00;;;8.33;;
11763;SDS011;5939;56.522;14.950;2022-12-18T02:18:21;13.83;;;8.77;;
11763;SDS011;5939;56.522;14.950;2022-12-18T02:22:11;9.93;;;7.47;;
11763;SDS011;5939;56.522;14.950;2022-12-18T02:24:14;13.27;;;8.17;;
11763;SDS011;5939;56.522;14.950;2022-12-18T02:26:50;12.07;;;7.70;;
11763;SDS011;5939;56.522;14.950;2022-12-18T02:29:21;11.17;;;7.83;;
11763;SDS011;5939;56.522;14.950;2022-12-18T02:31:55;10.93;;;7.33;;
11763;SDS011;5939;56.522;14.950;2022-12-18T02:34:29;10.00;;;7.33;;
11763;SDS011;5939;56.522;14.950;2022-12-18T02:36:57;11.30;;;7.50;;
11763;SDS011;5939;56.522;14.950;2022-12-18T02:39:26;12.53;;;7.27;;
11763;SDS011;5939;56.522;14.950;2022-12-18T02:41:54;11.47;;;7.00;;
11763;SDS011;5939;56.522;14.950;2022-12-18T02:44:20;10.47;;;7.37;;
11763;SDS011;5939;56.522;14.950;2022-12-18T02:46:49;10.27;;;7.53;;
11763;SDS011;5939;56.522;14.950;2022-12-18T02:49:35;13.77;;;7.93;;
11763;SDS011;5939;56.522;14.950;2022-12-18T02:52:09;13.33;;;7.83;;
11763;SDS011;5939;56.522;14.950;2022-12-18T02:54:52;14.57;;;7.63;;
11763;SDS011;5939;56.522;14.950;2022-12-18T02:57:43;11.67;;;7.40;;
11763;SDS011;5939;56.522;14.950;2022-12-18T03:00:24;11.33;;;7.00;;
11763;SDS011;5939;56.522;14.950;2022-12-18T03:03:19;9.23;;;7.07;;
11763;SDS011;5939;56.522;14.950;2022-12-18T03:06:00;10.17;;;6.53;;
11763;SDS011;5939;56.522;14.950;2022-12-18T03:08:38;9.63;;;7.00;;
11763;SDS011;5939;56.522;14.950;2022-12-18T03:11:11;12.37;;;7.57;;
11763;SDS011;5939;56.522;14.950;2022-12-18T03:16:10;9.63;;;6.67;;
11763;SDS011;5939;56.522;14.950;2022-12-18T03:18:46;9.97;;;6.87;;
11763;SDS011;5939;56.522;14.950;2022-12-18T03:21:14;11.23;;;7.63;;
11763;SDS011;5939;56.522;14.950;2022-12-18T03:23:44;10.10;;;6.37;;
11763;SDS011;5939;56.522;14.950;2022-12-18T03:26:15;11.50;;;7.43;;
11763;SDS011;5939;56.522;14.950;2022-12-18T03:28:46;10.67;;;7.10;;
11763;SDS011;5939;56.522;14.950;2022-12-18T03:31:16;13.20;;;7.83;;
11763;SDS011;5939;56.522;14.950;2022-12-18T03:33:45;10.27;;;6.50;;
11763;SDS011;5939;56.522;14.950;2022-12-18T03:36:19;9.57;;;7.07;;
11763;SDS011;5939;56.522;14.950;2022-12-18T03:38:45;8.90;;;6.53;;
11763;SDS011;5939;56.522;14.950;2022-12-18T03:41:32;10.87;;;7.00;;
11763;SDS011;5939;56.522;14.950;2022-12-18T03:44:14;10.00;;;6.53;;
11763;SDS011;5939;56.522;14.950;2022-12-18T03:49:49;11.13;;;6.80;;
11763;SDS011;5939;56.522;14.950;2022-12-18T03:52:36;9.27;;;6.10;;
11763;SDS011;5939;56.522;14.950;2022-12-18T03:55:15;8.93;;;6.33;;
11763;SDS011;5939;56.522;14.950;2022-12-18T03:57:41;9.53;;;6.43;;
11763;SDS011;5939;56.522;14.950;2022-12-18T04:00:11;8.43;;;5.97;;
11763;SDS011;5939;56.522;14.950;2022-12-18T04:02:40;9.63;;;6.83;;
11763;SDS011;5939;56.522;14.950;2022-12-18T04:05:10;8.90;;;6.43;;
11763;SDS011;5939;56.522;14.950;2022-12-18T04:07:38;9.80;;;6.80;;
11763;SDS011;5939;56.522;14.950;2022-12-18T04:10:05;11.03;;;6.90;;
11763;SDS011;5939;56.522;14.950;2022-12-18T04:12:32;9.30;;;6.67;;
11763;SDS011;5939;56.522;14.950;2022-12-18T04:14:58;9.13;;;6.00;;
11763;SDS011;5939;56.522;14.950;2022-12-18T04:17:24;11.17;;;6.27;;
11763;SDS011;5939;56.522;14.950;2022-12-18T04:19:49;7.77;;;5.77;;
11763;SDS011;5939;56.522;14.950;2022-12-18T04:22:15;10.73;;;6.50;;
11763;SDS011;5939;56.522;14.950;2022-12-18T04:24:41;8.53;;;5.83;;
11763;SDS011;5939;56.522;14.950;2022-12-18T04:27:07;9.20;;;6.03;;
11763;SDS011;5939;56.522;14.950;2022-12-18T04:29:35;9.97;;;6.00;;
11763;SDS011;5939;56.522;14.950;2022-12-18T04:32:00;9.30;;;5.93;;
11763;SDS011;5939;56.522;14.950;2022-12-18T04:34:26;8.43;;;5.60;;
11763;SDS011;5939;56.522;14.950;2022-12-18T04:36:51;10.33;;;6.37;;
11763;SDS011;5939;56.522;14.950;2022-12-18T04:39:17;7.20;;;6.00;;
11763;SDS011;5939;56.522;14.950;2022-12-18T04:41:43;8.47;;;5.67;;
11763;SDS011;5939;56.522;14.950;2022-12-18T04:44:08;10.77;;;6.37;;
11763;SDS011;5939;56.522;14.950;2022-12-18T04:46:34;8.97;;;5.60;;
11763;SDS011;5939;56.522;14.950;2022-12-18T04:49:00;8.30;;;5.80;;
11763;SDS011;5939;56.522;14.950;2022-12-18T04:51:25;7.73;;;5.83;;
11763;SDS011;5939;56.522;14.950;2022-12-18T04:53:51;9.70;;;5.70;;
11763;SDS011;5939;56.522;14.950;2022-12-18T04:56:16;7.73;;;5.47;;
11763;SDS011;5939;56.522;14.950;2022-12-18T04:58:43;10.50;;;5.73;;
11763;SDS011;5939;56.522;14.950;2022-12-18T05:01:09;8.10;;;5.30;;
11763;SDS011;5939;56.522;14.950;2022-12-18T05:03:36;9.77;;;6.10;;
11763;SDS011;5939;56.522;14.950;2022-12-18T05:06:02;7.50;;;5.30;;
11763;SDS011;5939;56.522;14.950;2022-12-18T05:08:29;8.27;;;5.10;;
11763;SDS011;5939;56.522;14.950;2022-12-18T05:11:04;9.27;;;5.57;;
11763;SDS011;5939;56.522;14.950;2022-12-18T05:13:34;8.93;;;5.80;;
11763;SDS011;5939;56.522;14.950;2022-12-18T05:16:00;7.90;;;5.20;;
11763;SDS011;5939;56.522;14.950;2022-12-18T05:18:26;9.60;;;5.77;;
11763;SDS011;5939;56.522;14.950;2022-12-18T05:20:52;7.77;;;5.00;;
11763;SDS011;5939;56.522;14.950;2022-12-18T05:23:18;8.60;;;5.77;;
11763;SDS011;5939;56.522;14.950;2022-12-18T05:25:52;10.20;;;5.93;;
11763;SDS011;5939;56.522;14.950;2022-12-18T05:28:22;6.63;;;4.93;;
11763;SDS011;5939;56.522;14.950;2022-12-18T05:30:54;8.90;;;5.47;;
11763;SDS011;5939;56.522;14.950;2022-12-18T05:33:22;9.10;;;5.00;;
11763;SDS011;5939;56.522;14.950;2022-12-18T05:35:52;9.90;;;5.67;;
11763;SDS011;5939;56.522;14.950;2022-12-18T05:38:20;8.13;;;5.37;;
11763;SDS011;5939;56.522;14.950;2022-12-18T05:40:47;7.57;;;5.33;;
11763;SDS011;5939;56.522;14.950;2022-12-18T05:43:13;7.20;;;5.43;;
11763;SDS011;5939;56.522;14.950;2022-12-18T05:45:39;7.17;;;5.00;;
11763;SDS011;5939;56.522;14.950;2022-12-18T05:48:06;7.97;;;5.13;;
11763;SDS011;5939;56.522;14.950;2022-12-18T05:50:39;7.67;;;4.43;;
11763;SDS011;5939;56.522;14.950;2022-12-18T05:53:07;5.83;;;4.80;;
11763;SDS011;5939;56.522;14.950;2022-12-18T05:55:36;6.37;;;4.90;;
11763;SDS011;5939;56.522;14.950;2022-12-18T05:58:03;7.50;;;5.00;;
11763;SDS011;5939;56.522;14.950;2022-12-18T06:00:30;8.40;;;4.70;;
11763;SDS011;5939;56.522;14.950;2022-12-18T06:02:57;7.57;;;4.83;;
11763;SDS011;5939;56.522;14.950;2022-12-18T06:05:23;7.47;;;5.13;;
11763;SDS011;5939;56.522;14.950;2022-12-18T06:07:49;6.63;;;4.90;;
11763;SDS011;5939;56.522;14.950;2022-12-18T06:10:15;7.73;;;5.10;;
11763;SDS011;5939;56.522;14.950;2022-12-18T06:12:41;8.93;;;4.83;;
11763;SDS011;5939;56.522;14.950;2022-12-18T06:15:07;7.00;;;4.97;;
11763;SDS011;5939;56.522;14.950;2022-12-18T06:17:33;7.07;;;4.60;;
11763;SDS011;5939;56.522;14.950;2022-12-18T06:19:59;6.50;;;4.57;;
11763;SDS011;5939;56.522;14.950;2022-12-18T06:22:26;7.53;;;4.80;;
11763;SDS011;5939;56.522;14.950;2022-12-18T06:24:52;8.03;;;4.60;;
11763;SDS011;5939;56.522;14.950;2022-12-18T06:27:18;7.70;;;5.13;;
11763;SDS011;5939;56.522;14.950;2022-12-18T06:29:44;5.37;;;4.37;;
11763;SDS011;5939;56.522;14.950;2022-12-18T06:32:10;8.90;;;5.10;;
11763;SDS011;5939;56.522;14.950;2022-12-18T06:34:39;7.83;;;5.03;;
11763;SDS011;5939;56.522;14.950;2022-12-18T06:37:04;6.23;;;4.53;;
11763;SDS011;5939;56.522;14.950;2022-12-18T06:39:30;6.93;;;4.23;;
11763;SDS011;5939;56.522;14.950;2022-12-18T06:41:56;6.70;;;4.77;;
11763;SDS011;5939;56.522;14.950;2022-12-18T06:44:21;9.00;;;4.90;;
11763;SDS011;5939;56.522;14.950;2022-12-18T06:46:47;6.73;;;4.67;;
11763;SDS011;5939;56.522;14.950;2022-12-18T06:49:13;5.77;;;4.60;;
11763;SDS011;5939;56.522;14.950;2022-12-18T06:51:39;5.53;;;4.20;;
11763;SDS011;5939;56.522;14.950;2022-12-18T06:54:04;6.20;;;4.40;;
11763;SDS011;5939;56.522;14.950;2022-12-18T06:56:30;5.77;;;4.23;;
11763;SDS011;5939;56.522;14.950;2022-12-18T06:58:55;8.07;;;4.33;;
11763;SDS011;5939;56.522;14.950;2022-12-18T07:01:22;5.27;;;4.20;;
11763;SDS011;5939;56.522;14.950;2022-12-18T07:03:51;6.80;;;4.43;;
11763;SDS011;5939;56.522;14.950;2022-12-18T07:06:19;6.17;;;4.33;;
11763;SDS011;5939;56.522;14.950;2022-12-18T07:08:46;5.63;;;3.80;;
11763;SDS011;5939;56.522;14.950;2022-12-18T07:11:13;5.73;;;3.93;;
11763;SDS011;5939;56.522;14.950;2022-12-18T07:13:39;6.00;;;4.30;;
11763;SDS011;5939;56.522;14.950;2022-12-18T07:16:09;6.80;;;4.30;;
11763;SDS011;5939;56.522;14.950;2022-12-18T07:18:36;5.93;;;4.33;;
11763;SDS011;5939;56.522;14.950;2022-12-18T07:21:03;6.17;;;4.07;;
11763;SDS011;5939;56.522;14.950;2022-12-18T07:23:31;6.00;;;4.33;;
11763;SDS011;5939;56.522;14.950;2022-12-18T07:26:05;6.63;;;4.63;;
11763;SDS011;5939;56.522;14.950;2022-12-18T07:28:35;5.87;;;4.00;;
11763;SDS011;5939;56.522;14.950;2022-12-18T07:31:02;9.07;;;4.77;;
11763;SDS011;5939;56.522;14.950;2022-12-18T07:33:33;7.23;;;4.33;;
11763;SDS011;5939;56.522;14.950;2022-12-18T07:36:03;5.80;;;4.17;;
11763;SDS011;5939;56.522;14.950;2022-12-18T07:38:30;6.30;;;3.97;;
11763;SDS011;5939;56.522;14.950;2022-12-18T07:41:03;6.13;;;4.57;;
11763;SDS011;5939;56.522;14.950;2022-12-18T07:43:39;6.57;;;4.10;;
11763;SDS011;5939;56.522;14.950;2022-12-18T07:46:06;5.27;;;3.67;;
11763;SDS011;5939;56.522;14.950;2022-12-18T07:48:33;6.47;;;4.10;;
11763;SDS011;5939;56.522;14.950;2022-12-18T07:51:03;9.93;;;4.30;;
11763;SDS011;5939;56.522;14.950;2022-12-18T07:53:30;8.07;;;4.23;;
11763;SDS011;5939;56.522;14.950;2022-12-18T07:55:57;6.50;;;4.30;;
11763;SDS011;5939;56.522;14.950;2022-12-18T07:58:30;6.27;;;4.00;;
11763;SDS011;5939;56.522;14.950;2022-12-18T08:01:07;5.83;;;3.80;;
11763;SDS011;5939;56.522;14.950;2022-12-18T08:03:34;5.87;;;3.67;;
11763;SDS011;5939;56.522;14.950;2022-12-18T08:06:00;5.80;;;3.83;;
11763;SDS011;5939;56.522;14.950;2022-12-18T08:08:30;6.43;;;4.27;;
11763;SDS011;5939;56.522;14.950;2022-12-18T08:10:56;5.43;;;4.13;;
11763;SDS011;5939;56.522;14.950;2022-12-18T08:13:22;8.60;;;4.17;;
11763;SDS011;5939;56.522;14.950;2022-12-18T08:16:06;5.27;;;3.97;;
11763;SDS011;5939;56.522;14.950;2022-12-18T08:18:34;6.43;;;4.50;;
11763;SDS011;5939;56.522;14.950;2022-12-18T08:21:11;7.43;;;4.17;;
11763;SDS011;5939;56.522;14.950;2022-12-18T08:23:41;4.60;;;3.60;;
11763;SDS011;5939;56.522;14.950;2022-12-18T08:26:07;5.53;;;4.10;;
11763;SDS011;5939;56.522;14.950;2022-12-18T08:28:33;6.70;;;4.23;;
11763;SDS011;5939;56.522;14.950;2022-12-18T08:30:59;6.77;;;4.10;;
11763;SDS011;5939;56.522;14.950;2022-12-18T08:33:25;6.20;;;3.90;;
11763;SDS011;5939;56.522;14.950;2022-12-18T08:35:51;6.57;;;4.10;;
11763;SDS011;5939;56.522;14.950;2022-12-18T08:38:17;7.03;;;3.57;;
11763;SDS011;5939;56.522;14.950;2022-12-18T08:40:43;4.30;;;3.57;;
11763;SDS011;5939;56.522;14.950;2022-12-18T08:43:09;6.20;;;4.10;;
11763;SDS011;5939;56.522;14.950;2022-12-18T08:45:54;5.60;;;3.87;;
11763;SDS011;5939;56.522;14.950;2022-12-18T08:48:20;4.90;;;3.90;;
11763;SDS011;5939;56.522;14.950;2022-12-18T08:50:55;6.17;;;3.60;;
11763;SDS011;5939;56.522;14.950;2022-12-18T08:53:22;5.17;;;3.77;;
11763;SDS011;5939;56.522;14.950;2022-12-18T08:55:51;6.40;;;3.67;;
11763;SDS011;5939;56.522;14.950;2022-12-18T08:58:17;6.50;;;4.10;;
11763;SDS011;5939;56.522;14.950;2022-12-18T09:00:43;5.57;;;3.87;;
11763;SDS011;5939;56.522;14.950;2022-12-18T09:03:12;5.67;;;3.90;;
11763;SDS011;5939;56.522;14.950;2022-12-18T09:05:38;7.13;;;4.00;;
11763;SDS011;5939;56.522;14.950;2022-12-18T09:08:04;5.33;;;3.80;;
11763;SDS011;5939;56.522;14.950;2022-12-18T09:10:29;7.33;;;3.60;;
11763;SDS011;5939;56.522;14.950;2022-12-18T09:12:55;6.90;;;4.23;;
11763;SDS011;5939;56.522;14.950;2022-12-18T09:15:21;5.67;;;3.80;;
11763;SDS011;5939;56.522;14.950;2022-12-18T09:17:47;4.87;;;3.50;;
11763;SDS011;5939;56.522;14.950;2022-12-18T09:20:14;5.23;;;4.03;;
11763;SDS011;5939;56.522;14.950;2022-12-18T09:22:41;6.30;;;3.67;;
11763;SDS011;5939;56.522;14.950;2022-12-18T09:25:06;5.63;;;4.07;;
11763;SDS011;5939;56.522;14.950;2022-12-18T09:27:33;5.67;;;4.03;;
11763;SDS011;5939;56.522;14.950;2022-12-18T09:29:59;7.63;;;4.37;;
11763;SDS011;5939;56.522;14.950;2022-12-18T09:32:25;7.77;;;4.17;;
11763;SDS011;5939;56.522;14.950;2022-12-18T09:34:50;5.70;;;3.83;;
11763;SDS011;5939;56.522;14.950;2022-12-18T09:37:16;4.87;;;3.87;;
11763;SDS011;5939;56.522;14.950;2022-12-18T09:39:42;6.83;;;4.10;;
11763;SDS011;5939;56.522;14.950;2022-12-18T09:42:09;8.30;;;3.57;;
11763;SDS011;5939;56.522;14.950;2022-12-18T09:44:45;7.30;;;4.30;;
11763;SDS011;5939;56.522;14.950;2022-12-18T09:47:22;8.00;;;4.23;;
11763;SDS011;5939;56.522;14.950;2022-12-18T09:49:52;7.63;;;4.23;;
11763;SDS011;5939;56.522;14.950;2022-12-18T09:57:49;7.30;;;4.13;;
11763;SDS011;5939;56.522;14.950;2022-12-18T10:00:20;7.30;;;4.30;;
11763;SDS011;5939;56.522;14.950;2022-12-18T10:02:48;6.97;;;4.53;;
11763;SDS011;5939;56.522;14.950;2022-12-18T10:05:19;9.30;;;4.67;;
11763;SDS011;5939;56.522;14.950;2022-12-18T10:13:21;8.40;;;4.10;;
11763;SDS011;5939;56.522;14.950;2022-12-18T10:21:41;9.87;;;4.30;;
11763;SDS011;5939;56.522;14.950;2022-12-18T10:24:30;9.07;;;4.10;;
11763;SDS011;5939;56.522;14.950;2022-12-18T10:27:17;8.97;;;5.10;;
11763;SDS011;5939;56.522;14.950;2022-12-18T10:29:46;6.23;;;3.70;;
11763;SDS011;5939;56.522;14.950;2022-12-18T10:32:13;6.07;;;4.50;;
11763;SDS011;5939;56.522;14.950;2022-12-18T10:34:45;6.23;;;3.77;;
11763;SDS011;5939;56.522;14.950;2022-12-18T10:37:19;7.00;;;4.40;;
11763;SDS011;5939;56.522;14.950;2022-12-18T10:39:46;7.93;;;4.40;;
11763;SDS011;5939;56.522;14.950;2022-12-18T10:42:37;7.47;;;4.20;;
11763;SDS011;5939;56.522;14.950;2022-12-18T10:45:10;7.40;;;4.53;;
11763;SDS011;5939;56.522;14.950;2022-12-18T10:47:45;8.47;;;4.60;;
11763;SDS011;5939;56.522;14.950;2022-12-18T10:50:22;8.90;;;4.43;;
11763;SDS011;5939;56.522;14.950;2022-12-18T10:53:00;9.90;;;5.00;;
11763;SDS011;5939;56.522;14.950;2022-12-18T10:55:38;9.13;;;4.67;;
11763;SDS011;5939;56.522;14.950;2022-12-18T11:03:33;8.70;;;5.00;;
11763;SDS011;5939;56.522;14.950;2022-12-18T11:06:08;9.23;;;4.60;;
11763;SDS011;5939;56.522;14.950;2022-12-18T11:08:36;7.40;;;4.67;;
11763;SDS011;5939;56.522;14.950;2022-12-18T11:11:03;8.67;;;5.23;;
11763;SDS011;5939;56.522;14.950;2022-12-18T11:13:32;8.37;;;4.60;;
11763;SDS011;5939;56.522;14.950;2022-12-18T11:15:58;6.13;;;4.10;;
11763;SDS011;5939;56.522;14.950;2022-12-18T11:18:34;9.93;;;4.50;;
11763;SDS011;5939;56.522;14.950;2022-12-18T11:21:08;11.27;;;4.43;;
11763;SDS011;5939;56.522;14.950;2022-12-18T11:23:36;5.80;;;4.13;;
11763;SDS011;5939;56.522;14.950;2022-12-18T11:26:10;10.03;;;5.37;;
11763;SDS011;5939;56.522;14.950;2022-12-18T11:28:46;7.50;;;5.23;;
11763;SDS011;5939;56.522;14.950;2022-12-18T11:31:27;9.27;;;5.20;;
11763;SDS011;5939;56.522;14.950;2022-12-18T11:36:25;8.57;;;5.00;;
11763;SDS011;5939;56.522;14.950;2022-12-18T11:38:57;8.63;;;5.33;;
11763;SDS011;5939;56.522;14.950;2022-12-18T11:41:29;8.23;;;4.60;;
11763;SDS011;5939;56.522;14.950;2022-12-18T11:44:32;9.33;;;5.30;;
11763;SDS011;5939;56.522;14.950;2022-12-18T11:47:36;9.63;;;5.00;;
11763;SDS011;5939;56.522;14.950;2022-12-18T11:50:20;8.03;;;4.97;;
11763;SDS011;5939;56.522;14.950;2022-12-18T11:52:49;9.00;;;5.17;;
11763;SDS011;5939;56.522;14.950;2022-12-18T11:55:17;8.97;;;4.83;;
11763;SDS011;5939;56.522;14.950;2022-12-18T11:58:17;8.57;;;4.73;;
11763;SDS011;5939;56.522;14.950;2022-12-18T12:00:46;9.77;;;4.80;;
11763;SDS011;5939;56.522;14.950;2022-12-18T12:03:24;8.90;;;5.47;;
11763;SDS011;5939;56.522;14.950;2022-12-18T12:07:06;8.33;;;4.53;;
11763;SDS011;5939;56.522;14.950;2022-12-18T12:09:14;9.53;;;5.17;;
11763;SDS011;5939;56.522;14.950;2022-12-18T12:14:55;9.80;;;5.47;;
11763;SDS011;5939;56.522;14.950;2022-12-18T12:17:46;9.10;;;4.90;;
11763;SDS011;5939;56.522;14.950;2022-12-18T12:23:06;6.53;;;4.43;;
11763;SDS011;5939;56.522;14.950;2022-12-18T12:25:52;8.53;;;4.93;;
11763;SDS011;5939;56.522;14.950;2022-12-18T12:34:02;7.00;;;4.77;;
11763;SDS011;5939;56.522;14.950;2022-12-18T12:39:30;8.50;;;4.93;;
11763;SDS011;5939;56.522;14.950;2022-12-18T12:42:02;8.57;;;4.77;;
11763;SDS011;5939;56.522;14.950;2022-12-18T12:44:53;9.70;;;5.37;;
11763;SDS011;5939;56.522;14.950;2022-12-18T12:47:30;8.63;;;5.03;;
11763;SDS011;5939;56.522;14.950;2022-12-18T12:50:02;7.33;;;4.40;;
11763;SDS011;5939;56.522;14.950;2022-12-18T12:52:31;8.77;;;5.43;;
11763;SDS011;5939;56.522;14.950;2022-12-18T12:55:01;9.23;;;5.00;;
11763;SDS011;5939;56.522;14.950;2022-12-18T12:57:31;7.97;;;4.97;;
11763;SDS011;5939;56.522;14.950;2022-12-18T13:00:12;8.63;;;5.23;;
11763;SDS011;5939;56.522;14.950;2022-12-18T13:02:50;8.40;;;5.00;;
11763;SDS011;5939;56.522;14.950;2022-12-18T13:05:26;8.43;;;5.13;;
11763;SDS011;5939;56.522;14.950;2022-12-18T13:10:35;9.10;;;5.20;;
11763;SDS011;5939;56.522;14.950;2022-12-18T13:13:04;7.13;;;4.43;;
11763;SDS011;5939;56.522;14.950;2022-12-18T13:20:49;7.63;;;4.83;;
11763;SDS011;5939;56.522;14.950;2022-12-18T13:26:28;6.50;;;4.47;;
11763;SDS011;5939;56.522;14.950;2022-12-18T13:33:46;7.93;;;5.17;;
11763;SDS011;5939;56.522;14.950;2022-12-18T13:38:40;7.23;;;4.83;;
11763;SDS011;5939;56.522;14.950;2022-12-18T13:43:38;7.17;;;4.30;;
11763;SDS011;5939;56.522;14.950;2022-12-18T13:48:59;8.27;;;4.60;;
11763;SDS011;5939;56.522;14.950;2022-12-18T13:51:35;8.30;;;4.47;;
11763;SDS011;5939;56.522;14.950;2022-12-18T13:56:45;8.73;;;4.63;;
11763;SDS011;5939;56.522;14.950;2022-12-18T14:01:54;10.10;;;4.47;;
11763;SDS011;5939;56.522;14.950;2022-12-18T14:04:28;6.47;;;4.73;;
11763;SDS011;5939;56.522;14.950;2022-12-18T14:06:56;7.77;;;4.23;;
11763;SDS011;5939;56.522;14.950;2022-12-18T14:09:28;5.37;;;4.23;;
11763;SDS011;5939;56.522;14.950;2022-12-18T14:11:56;7.07;;;4.40;;
11763;SDS011;5939;56.522;14.950;2022-12-18T14:14:45;7.67;;;4.43;;
11763;SDS011;5939;56.522;14.950;2022-12-18T14:17:13;8.47;;;4.60;;
11763;SDS011;5939;56.522;14.950;2022-12-18T14:19:44;6.60;;;4.37;;
11763;SDS011;5939;56.522;14.950;2022-12-18T14:22:21;6.30;;;4.23;;
11763;SDS011;5939;56.522;14.950;2022-12-18T14:27:41;6.03;;;3.80;;
11763;SDS011;5939;56.522;14.950;2022-12-18T14:35:34;6.67;;;4.03;;
11763;SDS011;5939;56.522;14.950;2022-12-18T14:40:56;7.93;;;3.80;;
11763;SDS011;5939;56.522;14.950;2022-12-18T14:43:45;4.87;;;3.80;;
11763;SDS011;5939;56.522;14.950;2022-12-18T14:48:57;7.43;;;4.47;;
11763;SDS011;5939;56.522;14.950;2022-12-18T14:51:25;7.97;;;3.67;;
11763;SDS011;5939;56.522;14.950;2022-12-18T14:53:53;6.20;;;3.80;;
11763;SDS011;5939;56.522;14.950;2022-12-18T14:56:43;5.60;;;3.67;;
11763;SDS011;5939;56.522;14.950;2022-12-18T14:59:14;6.53;;;3.87;;
11763;SDS011;5939;56.522;14.950;2022-12-18T15:01:47;6.37;;;4.10;;
11763;SDS011;5939;56.522;14.950;2022-12-18T15:04:34;5.20;;;3.70;;
11763;SDS011;5939;56.522;14.950;2022-12-18T15:09:41;4.90;;;3.27;;
11763;SDS011;5939;56.522;14.950;2022-12-18T15:12:22;6.03;;;4.23;;
11763;SDS011;5939;56.522;14.950;2022-12-18T15:15:00;6.57;;;3.67;;
11763;SDS011;5939;56.522;14.950;2022-12-18T15:17:26;5.10;;;3.17;;
11763;SDS011;5939;56.522;14.950;2022-12-18T15:19:53;6.00;;;3.70;;
11763;SDS011;5939;56.522;14.950;2022-12-18T15:22:29;7.17;;;3.43;;
11763;SDS011;5939;56.522;14.950;2022-12-18T15:24:57;5.17;;;3.30;;
11763;SDS011;5939;56.522;14.950;2022-12-18T15:27:28;6.23;;;3.87;;
11763;SDS011;5939;56.522;14.950;2022-12-18T15:32:38;5.00;;;3.30;;
11763;SDS011;5939;56.522;14.950;2022-12-18T15:37:36;4.80;;;3.80;;
11763;SDS011;5939;56.522;14.950;2022-12-18T15:40:05;6.97;;;3.67;;
11763;SDS011;5939;56.522;14.950;2022-12-18T15:42:33;5.07;;;3.50;;
11763;SDS011;5939;56.522;14.950;2022-12-18T15:45:17;5.40;;;3.07;;
11763;SDS011;5939;56.522;14.950;2022-12-18T15:47:43;5.57;;;3.47;;
11763;SDS011;5939;56.522;14.950;2022-12-18T15:50:09;5.43;;;3.23;;
11763;SDS011;5939;56.522;14.950;2022-12-18T15:52:45;4.60;;;3.00;;
11763;SDS011;5939;56.522;14.950;2022-12-18T15:55:13;5.50;;;3.43;;
11763;SDS011;5939;56.522;14.950;2022-12-18T15:57:59;5.27;;;3.40;;
11763;SDS011;5939;56.522;14.950;2022-12-18T16:00:25;5.63;;;3.17;;
11763;SDS011;5939;56.522;14.950;2022-12-18T16:02:51;6.17;;;3.50;;
11763;SDS011;5939;56.522;14.950;2022-12-18T16:05:18;4.73;;;3.50;;
11763;SDS011;5939;56.522;14.950;2022-12-18T16:07:45;4.70;;;3.27;;
11763;SDS011;5939;56.522;14.950;2022-12-18T16:10:11;5.13;;;3.40;;
11763;SDS011;5939;56.522;14.950;2022-12-18T16:12:37;5.00;;;3.00;;
11763;SDS011;5939;56.522;14.950;2022-12-18T16:15:03;4.73;;;3.13;;
11763;SDS011;5939;56.522;14.950;2022-12-18T16:17:29;4.47;;;3.20;;
11763;SDS011;5939;56.522;14.950;2022-12-18T16:19:55;5.77;;;3.67;;
11763;SDS011;5939;56.522;14.950;2022-12-18T16:22:22;5.53;;;3.30;;
11763;SDS011;5939;56.522;14.950;2022-12-18T16:24:53;4.13;;;3.07;;
11763;SDS011;5939;56.522;14.950;2022-12-18T16:27:20;6.07;;;3.20;;
11763;SDS011;5939;56.522;14.950;2022-12-18T16:29:47;5.87;;;3.60;;
11763;SDS011;5939;56.522;14.950;2022-12-18T16:32:17;5.60;;;3.10;;
11763;SDS011;5939;56.522;14.950;2022-12-18T16:34:45;7.37;;;3.77;;
11763;SDS011;5939;56.522;14.950;2022-12-18T16:37:11;5.87;;;3.57;;
11763;SDS011;5939;56.522;14.950;2022-12-18T16:39:38;5.40;;;3.40;;
11763;SDS011;5939;56.522;14.950;2022-12-18T16:42:06;4.63;;;3.07;;
11763;SDS011;5939;56.522;14.950;2022-12-18T16:44:41;6.63;;;3.50;;